Portada
METAR-TAF:

METAR-TAF

Aeroports :

Schoolcraft County Airport

Manistique, Michigan, Estats Units d'Amèrica

latitud: 45-58-29N, longitud: 086-10-19W, altitud: 209 m

Observació

L'informe es va fer fa 24 minuts, a les 03:55 UTC
Vent 9 kt del Nord
Temperatura 16°C
Humitat 94%
Pressió 1017 hPa
Visibilitat: 16.1 km
Cel clar

METAR: KISQ 180355Z AUTO 35009KT 10SM CLR 16/15 A3003 RMK AO2 T01550146 402820155

Hora: 00:19 (04:19 UTC)


TAF: manca

Observacions i pronòstics meteorològics de més de 4000 aeroports (METAR i TAF).

Les estacions disponibles són els punts grocs i vermells al mapa.

Posi el ratolí al punt desitjat per veure el nom de l'estació.

Feu clic per veure les observacions i els pronòstics meteorològics.

Per canviar el mapa: feu clic els botons verds amb una creu de color negre per apropar; al botó verd amb un guió per allunyar la imatge; o en les fletxes verdes per a mapes adjacents.


METAR-TAF: